createdAt,value
2023-05-23T00:00:17.804Z,81.204000
2023-05-23T00:05:17.799Z,80.866667
2023-05-23T00:10:17.693Z,82.129167
2023-05-23T00:15:17.607Z,82.400000
2023-05-23T00:20:17.559Z,82.133333
2023-05-23T00:25:18.035Z,82.112500
2023-05-23T00:30:17.516Z,81.645833
2023-05-23T00:35:17.869Z,81.125000
2023-05-23T00:40:17.540Z,80.991667
2023-05-23T00:45:17.734Z,80.916667
2023-05-23T00:50:17.549Z,80.580000
2023-05-23T00:55:17.644Z,80.450000
2023-05-23T01:00:17.608Z,80.375000
2023-05-23T01:05:17.557Z,80.920833
2023-05-23T01:10:17.717Z,81.166667
2023-05-23T01:15:17.633Z,81.166667
2023-05-23T01:20:17.765Z,81.562500
2023-05-23T01:25:17.800Z,81.700000
2023-05-23T01:30:17.646Z,81.666667
2023-05-23T01:35:17.735Z,81.450000
2023-05-23T01:40:17.514Z,81.525000
2023-05-23T01:45:17.974Z,81.575000
2023-05-23T01:50:17.687Z,81.541667
2023-05-23T01:55:17.900Z,81.825000
2023-05-23T02:00:17.928Z,81.933333
2023-05-23T02:05:17.534Z,81.983333
2023-05-23T02:10:17.557Z,81.916667
2023-05-23T02:15:17.895Z,81.866667
2023-05-23T02:20:17.605Z,82.091667
2023-05-23T02:25:17.911Z,82.483333
2023-05-23T02:30:17.827Z,82.829167
2023-05-23T02:35:17.935Z,82.950000
2023-05-23T02:40:17.598Z,84.591667
2023-05-23T02:45:17.943Z,85.295833
2023-05-23T02:50:17.809Z,84.668000
2023-05-23T02:55:17.457Z,85.166667
2023-05-23T03:00:17.975Z,85.937500
2023-05-23T03:05:17.933Z,86.570833
2023-05-23T03:10:17.839Z,86.100000
2023-05-23T03:15:17.817Z,86.279167
2023-05-23T03:20:17.889Z,86.900000
2023-05-23T03:25:18.605Z,87.487500
2023-05-23T03:30:17.763Z,87.425000
2023-05-23T03:35:17.569Z,87.587500
2023-05-23T03:40:17.987Z,87.616667
2023-05-23T03:45:17.616Z,87.583333
2023-05-23T03:50:17.620Z,87.500000
2023-05-23T03:55:17.541Z,87.683333
2023-05-23T04:00:18.286Z,87.866667
2023-05-23T04:05:17.583Z,88.087500
2023-05-23T04:10:17.520Z,87.950000
2023-05-23T04:15:18.197Z,87.575000
2023-05-23T04:20:17.733Z,87.100000
2023-05-23T04:25:17.820Z,86.654167
2023-05-23T04:30:17.608Z,86.329167
2023-05-23T04:35:17.543Z,86.141667
2023-05-23T04:40:17.501Z,86.004167
2023-05-23T04:45:17.800Z,86.037500
2023-05-23T04:50:17.599Z,85.808333
2023-05-23T04:55:17.496Z,85.400000
2023-05-23T05:00:17.577Z,85.158333
2023-05-23T05:05:17.675Z,85.362500
2023-05-23T05:10:17.555Z,85.291667
2023-05-23T05:15:17.808Z,84.708333
2023-05-23T05:20:17.512Z,84.483333
2023-05-23T05:25:17.650Z,84.179167
2023-05-23T05:30:17.708Z,84.200000
2023-05-23T05:35:17.839Z,83.854167
2023-05-23T05:40:17.575Z,83.583333
2023-05-23T05:45:17.941Z,83.500000
2023-05-23T05:50:17.820Z,83.425000
2023-05-23T05:55:17.732Z,83.116667
2023-05-23T06:00:17.524Z,82.800000
2023-05-23T06:05:17.541Z,82.754167
2023-05-23T06:10:18.087Z,81.966667
2023-05-23T06:15:18.122Z,81.587500
2023-05-23T06:20:17.470Z,81.208333
2023-05-23T06:25:18.184Z,81.070833
2023-05-23T06:30:17.587Z,81.112500
2023-05-23T06:35:17.521Z,81.316667
2023-05-23T06:40:17.599Z,81.366667
2023-05-23T06:45:17.637Z,81.629167
2023-05-23T06:50:17.604Z,80.900000
2023-05-23T06:55:17.573Z,80.868000
2023-05-23T07:00:18.060Z,81.104167
2023-05-23T07:05:17.655Z,81.508333
2023-05-23T07:10:17.657Z,81.650000
2023-05-23T07:15:17.506Z,81.400000
2023-05-23T07:20:17.947Z,80.229167
2023-05-23T07:25:17.932Z,81.225000
2023-05-23T07:30:17.505Z,81.808333
2023-05-23T07:35:17.430Z,81.844000
2023-05-23T07:40:17.700Z,81.616667
2023-05-23T07:45:17.732Z,80.632000
2023-05-23T07:50:18.003Z,80.333333
2023-05-23T07:55:17.784Z,80.608333
2023-05-23T08:00:17.467Z,81.233333
2023-05-23T08:05:17.432Z,81.554167
2023-05-23T08:10:17.945Z,82.125000
2023-05-23T08:15:17.460Z,83.195833
2023-05-23T08:20:17.460Z,84.308333
2023-05-23T08:25:17.756Z,85.595833
2023-05-23T08:30:17.559Z,86.354167
2023-05-23T08:35:17.635Z,86.845833
2023-05-23T08:40:17.436Z,86.825000
2023-05-23T08:45:17.452Z,86.766667
2023-05-23T08:50:20.075Z,86.632000
2023-05-23T08:55:18.001Z,85.920833
2023-05-23T09:00:17.556Z,85.145833
2023-05-23T09:05:17.755Z,84.170833
2023-05-23T09:10:17.883Z,83.900000
2023-05-23T09:15:18.282Z,83.937500
2023-05-23T09:20:17.703Z,84.540000
2023-05-23T09:25:17.628Z,84.683333
2023-05-23T09:30:17.612Z,85.036000
2023-05-23T09:35:17.394Z,85.337500
2023-05-23T09:40:17.787Z,85.787500
2023-05-23T09:45:17.794Z,85.858333
2023-05-23T09:50:17.492Z,86.470833
2023-05-23T09:55:17.478Z,86.808333
2023-05-23T10:00:17.620Z,86.333333
2023-05-23T10:05:17.453Z,85.670833
2023-05-23T10:10:17.565Z,84.658333
2023-05-23T10:15:17.518Z,83.312500
2023-05-23T10:20:17.770Z,82.116667
2023-05-23T10:25:17.639Z,81.779167
2023-05-23T10:30:17.479Z,80.158333
2023-05-23T10:35:17.510Z,80.766667
2023-05-23T10:40:17.466Z,80.587500
2023-05-23T10:45:17.493Z,81.258333
2023-05-23T10:50:17.476Z,81.233333
2023-05-23T10:55:17.666Z,81.012500
2023-05-23T11:00:17.505Z,81.754167
2023-05-23T11:05:17.466Z,81.941667
2023-05-23T11:10:17.328Z,81.583333
2023-05-23T11:15:17.585Z,81.900000
2023-05-23T11:20:17.640Z,82.308333
2023-05-23T11:25:18.063Z,82.283333
2023-05-23T11:30:17.902Z,82.079167
2023-05-23T11:35:17.469Z,81.183333
2023-05-23T11:40:17.695Z,80.650000
2023-05-23T11:45:17.470Z,79.024000
2023-05-23T11:50:18.947Z,78.656000
2023-05-23T11:55:17.437Z,76.887500
2023-05-23T12:00:17.482Z,77.041667
2023-05-23T12:05:17.454Z,77.837500
2023-05-23T12:10:17.659Z,78.208333
2023-05-23T12:15:17.468Z,78.545833
2023-05-23T12:20:17.444Z,77.783333
2023-05-23T12:25:17.602Z,78.245833
2023-05-23T12:30:17.615Z,78.824000
2023-05-23T12:35:17.433Z,80.883333
2023-05-23T12:40:17.482Z,82.816000
2023-05-23T12:45:17.566Z,84.491667
2023-05-23T12:50:17.775Z,85.354167
2023-05-23T12:55:17.706Z,86.158333
2023-05-23T13:00:17.396Z,86.670833
2023-05-23T13:05:17.636Z,86.833333
2023-05-23T13:10:17.295Z,86.608333
2023-05-23T13:15:17.732Z,87.070833
2023-05-23T13:20:17.375Z,87.250000
2023-05-23T13:25:17.815Z,87.400000
2023-05-23T13:30:17.539Z,87.641667
2023-05-23T13:35:17.625Z,87.495833
2023-05-23T13:40:17.541Z,87.708333
2023-05-23T13:45:17.700Z,88.075000
2023-05-23T13:50:18.216Z,88.200000
2023-05-23T13:55:17.919Z,88.095833
2023-05-23T14:00:17.397Z,88.233333
2023-05-23T14:05:17.327Z,88.496000
2023-05-23T14:10:17.729Z,87.987500
2023-05-23T14:15:17.417Z,87.650000
2023-05-23T14:20:17.791Z,87.237500
2023-05-23T14:25:17.490Z,86.812000
2023-05-23T14:30:17.650Z,86.684000
2023-05-23T14:35:17.368Z,86.433333
2023-05-23T14:40:17.396Z,86.204167
2023-05-23T14:45:18.947Z,86.291667
2023-05-23T14:50:17.287Z,86.570833
2023-05-23T14:55:17.237Z,86.816667
2023-05-23T15:00:17.327Z,86.491667
2023-05-23T15:05:17.607Z,86.212500
2023-05-23T15:10:17.364Z,85.983333
2023-05-23T15:15:17.389Z,85.879167
2023-05-23T15:20:17.416Z,86.150000
2023-05-23T15:25:20.431Z,86.291667
2023-05-23T15:30:17.312Z,86.770833
2023-05-23T15:35:19.597Z,86.966667
2023-05-23T15:40:17.480Z,87.029167
2023-05-23T15:45:17.263Z,87.200000
2023-05-23T15:50:17.264Z,87.320833
2023-05-23T15:55:17.376Z,87.383333
2023-05-23T16:00:17.409Z,87.252000
2023-05-23T16:05:17.536Z,87.520833
2023-05-23T16:10:17.453Z,87.841667
2023-05-23T16:15:17.654Z,88.100000
2023-05-23T16:20:17.478Z,88.429167
2023-05-23T16:25:18.131Z,88.729167
2023-05-23T16:30:17.445Z,88.795833
2023-05-23T16:35:17.650Z,88.958333
2023-05-23T16:40:19.804Z,89.120833
2023-05-23T16:45:17.285Z,89.241667
2023-05-23T16:50:17.415Z,89.400000
2023-05-23T16:55:17.415Z,89.395833
2023-05-23T17:00:18.016Z,89.483333
2023-05-23T17:05:17.259Z,89.533333
2023-05-23T17:10:20.098Z,89.500000
2023-05-23T17:15:17.561Z,89.370833
2023-05-23T17:20:17.401Z,89.200000
2023-05-23T17:25:17.820Z,89.400000
2023-05-23T17:30:17.243Z,89.329167
2023-05-23T17:35:17.343Z,89.541667
2023-05-23T17:40:17.681Z,89.766667
2023-05-23T17:45:17.385Z,89.825000
2023-05-23T17:50:17.387Z,89.908333
2023-05-23T17:55:17.195Z,89.900000
2023-05-23T18:00:17.264Z,89.916000
2023-05-23T18:05:17.488Z,89.912500
2023-05-23T18:10:17.462Z,89.937500
2023-05-23T18:15:17.457Z,89.875000
2023-05-23T18:20:17.254Z,89.800000
2023-05-23T18:25:17.431Z,89.656000
2023-05-23T18:30:17.625Z,89.566667
2023-05-23T18:35:17.232Z,89.416667
2023-05-23T18:40:17.575Z,89.287500
2023-05-23T18:45:17.295Z,89.095833
2023-05-23T18:50:17.489Z,89.000000
2023-05-23T18:55:17.441Z,89.004167
2023-05-23T19:00:17.986Z,89.144000
2023-05-23T19:05:17.252Z,89.333333
2023-05-23T19:10:17.897Z,89.516667
2023-05-23T19:15:17.615Z,89.683333
2023-05-23T19:20:17.656Z,89.770833
2023-05-23T19:25:18.431Z,89.957895
2023-05-23T19:30:17.743Z,89.925000
2023-05-23T19:35:17.499Z,89.987500
2023-05-23T19:40:17.182Z,90.036000
2023-05-23T19:45:17.405Z,90.120833
2023-05-23T19:50:17.478Z,90.162500
2023-05-23T19:55:17.233Z,90.216667
2023-05-23T20:00:17.265Z,90.200000
2023-05-23T20:05:17.117Z,90.200000
2023-05-23T20:10:17.549Z,90.237500
2023-05-23T20:15:21.751Z,90.266667
2023-05-23T20:20:17.386Z,90.300000
2023-05-23T20:25:17.429Z,90.233333
2023-05-23T20:30:17.473Z,90.225000
2023-05-23T20:35:17.328Z,90.216667
2023-05-23T20:40:17.269Z,90.166667
2023-05-23T20:45:17.546Z,90.166667
2023-05-23T20:50:17.237Z,89.983333
2023-05-23T20:55:17.368Z,89.741667
2023-05-23T21:00:17.372Z,89.483333
2023-05-23T21:05:17.317Z,88.820833
2023-05-23T21:10:17.432Z,87.920833
2023-05-23T21:15:17.728Z,87.312500
2023-05-23T21:20:17.846Z,86.358333
2023-05-23T21:25:17.841Z,85.183333
2023-05-23T21:30:17.551Z,83.654167
2023-05-23T21:35:17.231Z,83.145833
2023-05-23T21:40:17.418Z,82.520833
2023-05-23T21:45:17.303Z,81.933333
2023-05-23T21:50:17.235Z,81.237500
2023-05-23T21:55:17.468Z,81.133333
2023-05-23T22:00:17.370Z,81.016667
2023-05-23T22:05:17.573Z,81.208333
2023-05-23T22:10:17.269Z,81.795833
2023-05-23T22:15:17.335Z,82.150000
2023-05-23T22:20:17.420Z,82.433333
2023-05-23T22:25:17.308Z,82.966667
2023-05-23T22:30:17.233Z,83.404167
2023-05-23T22:35:17.204Z,83.866667
2023-05-23T22:40:17.358Z,84.340000
2023-05-23T22:45:17.215Z,84.666667
2023-05-23T22:50:17.189Z,84.584000
2023-05-23T22:55:17.540Z,84.050000
2023-05-23T23:00:17.264Z,83.816667
2023-05-23T23:05:17.194Z,83.766667
2023-05-23T23:10:17.081Z,83.383333
2023-05-23T23:15:17.282Z,83.329167
2023-05-23T23:20:17.456Z,83.337500
2023-05-23T23:25:17.727Z,83.700000
2023-05-23T23:30:17.272Z,84.087500
2023-05-23T23:35:17.480Z,84.550000
2023-05-23T23:40:17.152Z,85.000000
2023-05-23T23:45:17.916Z,85.112500
2023-05-23T23:50:17.158Z,85.245833
2023-05-23T23:55:17.321Z,85.070833
